createdAt,value
2022-12-17T00:01:06.034Z,18.50
2022-12-17T00:03:51.909Z,21.98
2022-12-17T00:06:37.331Z,17.73
2022-12-17T00:09:22.883Z,20.73
2022-12-17T00:12:09.815Z,19.35
2022-12-17T00:14:55.283Z,22.77
2022-12-17T00:17:41.590Z,21.83
2022-12-17T00:20:27.534Z,25.70
2022-12-17T00:23:20.193Z,26.00
2022-12-17T00:26:13.607Z,26.13
2022-12-17T00:28:59.693Z,22.30
2022-12-17T00:31:46.170Z,26.83
2022-12-17T00:34:31.742Z,21.70
2022-12-17T00:37:17.193Z,20.42
2022-12-17T00:40:02.669Z,20.00
2022-12-17T00:42:48.423Z,25.02
2022-12-17T00:45:33.647Z,22.20
2022-12-17T00:48:19.126Z,20.35
2022-12-17T00:51:04.750Z,19.17
2022-12-17T00:53:50.094Z,27.33
2022-12-17T00:56:35.660Z,20.90
2022-12-17T00:59:21.169Z,21.33
2022-12-17T01:02:06.379Z,22.65
2022-12-17T01:04:52.190Z,26.58
2022-12-17T01:07:37.822Z,20.63
2022-12-17T01:10:23.505Z,24.50
2022-12-17T01:13:09.093Z,21.42
2022-12-17T01:15:55.226Z,19.00
2022-12-17T01:18:42.009Z,25.50
2022-12-17T01:21:27.315Z,21.10
2022-12-17T01:24:12.857Z,19.30
2022-12-17T01:26:58.247Z,22.48
2022-12-17T01:29:43.465Z,26.65
2022-12-17T01:32:29.078Z,23.00
2022-12-17T01:35:14.462Z,20.95
2022-12-17T01:37:59.929Z,22.15
2022-12-17T01:40:45.329Z,19.98
2022-12-17T01:43:31.919Z,22.33
2022-12-17T01:46:17.805Z,23.10
2022-12-17T01:49:06.665Z,23.38
2022-12-17T01:51:54.054Z,29.65
2022-12-17T01:54:39.528Z,22.38
2022-12-17T01:57:26.443Z,26.80
2022-12-17T02:00:25.296Z,22.38
2022-12-17T02:03:10.918Z,31.30
2022-12-17T02:06:17.442Z,24.63
2022-12-17T02:09:11.666Z,24.42
2022-12-17T02:12:20.952Z,25.95
2022-12-17T02:15:14.162Z,29.23
2022-12-17T02:18:11.667Z,22.10
2022-12-17T02:21:05.234Z,26.42
2022-12-17T02:24:08.150Z,23.27
2022-12-17T02:27:19.526Z,24.25
2022-12-17T02:30:09.447Z,26.58
2022-12-17T02:32:58.263Z,25.73
2022-12-17T02:35:54.237Z,23.58
2022-12-17T02:38:44.351Z,27.33
2022-12-17T02:41:34.502Z,21.63
2022-12-17T02:44:28.942Z,19.92
2022-12-17T02:47:16.406Z,26.85
2022-12-17T02:50:01.828Z,23.02
2022-12-17T02:52:48.422Z,27.15
2022-12-17T02:55:33.867Z,24.27
2022-12-17T02:58:19.226Z,25.25
2022-12-17T03:01:04.720Z,23.30
2022-12-17T03:03:50.603Z,21.40
2022-12-17T03:06:36.058Z,18.02
2022-12-17T03:09:21.598Z,16.98
2022-12-17T03:12:07.071Z,20.67
2022-12-17T03:14:52.590Z,22.23
2022-12-17T03:17:38.120Z,23.30
2022-12-17T03:20:24.192Z,22.70
2022-12-17T03:23:09.528Z,18.25
2022-12-17T03:25:55.025Z,22.13
2022-12-17T03:28:40.612Z,21.63
2022-12-17T03:31:26.107Z,18.20
2022-12-17T03:34:11.275Z,21.50
2022-12-17T03:36:56.852Z,25.35
2022-12-17T03:39:42.302Z,20.30
2022-12-17T03:42:27.615Z,23.25
2022-12-17T03:45:12.881Z,23.73
2022-12-17T03:47:58.517Z,19.40
2022-12-17T03:50:43.939Z,26.13
2022-12-17T03:53:29.412Z,22.75
2022-12-17T03:56:14.910Z,19.63
2022-12-17T03:59:00.263Z,26.23
2022-12-17T04:01:45.834Z,28.15
2022-12-17T04:04:31.158Z,21.90
2022-12-17T04:07:16.726Z,17.50
2022-12-17T04:10:02.183Z,26.25
2022-12-17T04:12:47.517Z,17.42
2022-12-17T04:15:33.007Z,23.02
2022-12-17T04:18:18.114Z,25.92
2022-12-17T04:21:05.130Z,29.48
2022-12-17T04:23:50.719Z,27.63
2022-12-17T04:26:36.139Z,20.73
2022-12-17T04:29:21.544Z,22.13
2022-12-17T04:32:07.123Z,20.27
2022-12-17T04:34:52.612Z,27.17
2022-12-17T04:37:38.066Z,20.98
2022-12-17T04:40:23.927Z,26.38
2022-12-17T04:43:09.110Z,24.88
2022-12-17T04:45:54.487Z,24.55
2022-12-17T04:48:41.891Z,21.95
2022-12-17T04:51:27.454Z,28.55
2022-12-17T04:54:12.941Z,25.98
2022-12-17T04:56:58.422Z,21.70
2022-12-17T04:59:43.914Z,22.55
2022-12-17T05:02:29.309Z,18.52
2022-12-17T05:05:14.672Z,25.27
2022-12-17T05:08:00.046Z,21.63
2022-12-17T05:10:45.474Z,22.77
2022-12-17T05:13:30.877Z,22.17
2022-12-17T05:16:16.655Z,31.70
2022-12-17T05:19:01.928Z,30.92
2022-12-17T05:21:47.305Z,21.50
2022-12-17T05:24:32.863Z,24.70
2022-12-17T05:27:18.217Z,28.02
2022-12-17T05:30:03.734Z,21.40
2022-12-17T05:32:49.186Z,28.95
2022-12-17T05:35:34.657Z,24.45
2022-12-17T05:38:24.338Z,26.50
2022-12-17T05:41:10.360Z,27.83
2022-12-17T05:43:55.743Z,25.92
2022-12-17T05:46:41.181Z,22.40
2022-12-17T05:49:26.579Z,25.02
2022-12-17T05:52:12.062Z,27.40
2022-12-17T05:55:17.223Z,26.08
2022-12-17T05:58:02.448Z,21.27
2022-12-17T06:00:47.655Z,20.05
2022-12-17T06:03:33.080Z,25.02
2022-12-17T06:06:18.291Z,30.63
2022-12-17T06:09:03.766Z,32.15
2022-12-17T06:11:49.139Z,30.23
2022-12-17T06:14:34.409Z,26.65
2022-12-17T06:17:19.910Z,22.15
2022-12-17T06:20:05.359Z,26.42
2022-12-17T06:22:50.601Z,22.63
2022-12-17T06:25:35.796Z,35.88
2022-12-17T06:28:21.654Z,30.08
2022-12-17T06:31:11.594Z,42.60
2022-12-17T06:33:56.674Z,26.70
2022-12-17T06:36:42.115Z,32.95
2022-12-17T06:39:27.781Z,37.25
2022-12-17T06:42:13.340Z,35.15
2022-12-17T06:44:59.051Z,29.77
2022-12-17T06:47:44.387Z,39.08
2022-12-17T06:50:29.932Z,28.00
2022-12-17T06:53:23.272Z,38.63
2022-12-17T06:56:08.757Z,39.38
2022-12-17T06:58:54.277Z,34.88
2022-12-17T07:01:39.930Z,33.95
2022-12-17T07:04:25.331Z,35.58
2022-12-17T07:07:10.736Z,41.38
2022-12-17T07:09:57.191Z,31.38
2022-12-17T07:12:42.616Z,23.35
2022-12-17T07:15:28.225Z,25.25
2022-12-17T07:18:21.309Z,25.63
2022-12-17T07:21:07.893Z,24.00
2022-12-17T07:23:53.586Z,23.27
2022-12-17T07:26:42.010Z,39.85
2022-12-17T07:29:27.356Z,46.33
2022-12-17T07:32:12.835Z,38.67
2022-12-17T07:34:58.207Z,48.72
2022-12-17T07:37:43.670Z,40.75
2022-12-17T07:40:29.542Z,37.53
2022-12-17T07:43:15.046Z,28.05
2022-12-17T07:46:00.488Z,29.90
2022-12-17T07:48:45.922Z,38.08
2022-12-17T07:51:31.348Z,39.03
2022-12-17T07:54:16.843Z,38.30
2022-12-17T07:57:02.368Z,66.20
2022-12-17T07:59:47.788Z,55.13
2022-12-17T08:02:33.280Z,51.72
2022-12-17T08:05:18.729Z,41.20
2022-12-17T08:08:04.060Z,42.13
2022-12-17T08:10:49.410Z,43.15
2022-12-17T08:13:35.282Z,41.53
2022-12-17T08:16:20.776Z,40.90
2022-12-17T08:19:06.174Z,35.95
2022-12-17T08:21:51.669Z,33.13
2022-12-17T08:24:37.902Z,37.15
2022-12-17T08:27:23.416Z,30.92
2022-12-17T08:30:08.860Z,38.92
2022-12-17T08:32:54.150Z,41.45
2022-12-17T08:35:39.525Z,50.50
2022-12-17T08:38:25.669Z,56.35
2022-12-17T08:41:11.221Z,56.20
2022-12-17T08:43:56.666Z,61.47
2022-12-17T08:46:42.190Z,51.30
2022-12-17T08:49:27.706Z,52.33
2022-12-17T08:52:13.151Z,55.45
2022-12-17T08:54:59.599Z,50.08
2022-12-17T08:57:45.006Z,47.05
2022-12-17T09:00:30.610Z,43.63
2022-12-17T09:03:18.288Z,40.05
2022-12-17T09:06:03.507Z,52.38
2022-12-17T09:08:48.880Z,51.80
2022-12-17T09:11:34.443Z,44.00
2022-12-17T09:14:22.337Z,46.70
2022-12-17T09:17:07.880Z,48.17
2022-12-17T09:19:53.170Z,39.83
2022-12-17T09:22:38.546Z,35.70
2022-12-17T09:25:24.031Z,38.75
2022-12-17T09:28:09.503Z,39.88
2022-12-17T09:30:54.962Z,40.58
2022-12-17T09:33:40.682Z,44.40
2022-12-17T09:36:26.481Z,40.13
2022-12-17T09:39:11.902Z,47.95
2022-12-17T09:42:15.989Z,37.17
2022-12-17T09:45:09.609Z,45.97
2022-12-17T09:48:07.605Z,40.67
2022-12-17T09:50:53.278Z,39.10
2022-12-17T09:53:41.291Z,43.80
2022-12-17T09:56:30.583Z,48.75
2022-12-17T09:59:16.088Z,47.10
2022-12-17T10:02:01.487Z,50.67
2022-12-17T10:05:13.474Z,51.35
2022-12-17T10:07:59.177Z,47.45
2022-12-17T10:10:51.081Z,40.22
2022-12-17T10:13:40.990Z,58.03
2022-12-17T10:16:48.873Z,44.55
2022-12-17T10:19:55.146Z,38.13
2022-12-17T10:22:40.708Z,42.03
2022-12-17T10:25:49.675Z,38.63
2022-12-17T10:28:57.662Z,40.55
2022-12-17T10:31:47.766Z,35.95
2022-12-17T10:34:37.462Z,51.58
2022-12-17T10:37:24.268Z,45.75
2022-12-17T10:40:17.846Z,47.20
2022-12-17T10:43:03.897Z,41.80
2022-12-17T10:45:52.542Z,35.50
2022-12-17T10:48:44.466Z,33.13
2022-12-17T10:51:49.822Z,35.92
2022-12-17T10:54:51.479Z,30.35
2022-12-17T10:57:48.842Z,35.05
2022-12-17T11:00:47.363Z,24.33
2022-12-17T11:04:09.623Z,29.83
2022-12-17T11:07:04.646Z,33.78
2022-12-17T11:10:10.118Z,36.00
2022-12-17T11:13:07.754Z,36.47
2022-12-17T11:16:08.912Z,38.25
2022-12-17T11:19:16.920Z,40.13
2022-12-17T11:22:07.070Z,44.00
2022-12-17T11:25:09.313Z,41.95
2022-12-17T11:28:01.941Z,43.83
2022-12-17T11:30:47.779Z,44.70
2022-12-17T11:34:04.472Z,42.63
2022-12-17T11:37:00.679Z,36.67
2022-12-17T11:40:01.862Z,44.92
2022-12-17T11:42:58.540Z,46.97
2022-12-17T11:46:00.112Z,54.58
2022-12-17T11:49:17.894Z,96.13
2022-12-17T11:52:06.838Z,78.40
2022-12-17T11:55:11.491Z,66.43
2022-12-17T11:58:19.300Z,61.50
2022-12-17T12:01:26.336Z,43.40
2022-12-17T12:04:41.065Z,40.50
2022-12-17T12:07:40.318Z,41.50
2022-12-17T12:10:35.918Z,40.72
2022-12-17T12:13:30.498Z,39.40
2022-12-17T12:16:43.553Z,39.33
2022-12-17T12:19:41.164Z,39.13
2022-12-17T12:22:34.665Z,42.28
2022-12-17T12:25:30.792Z,33.22
2022-12-17T12:28:40.727Z,35.40
2022-12-17T12:31:41.244Z,32.03
2022-12-17T12:34:32.784Z,36.90
2022-12-17T12:37:23.442Z,38.80
2022-12-17T12:40:17.882Z,32.93
2022-12-17T12:43:41.508Z,30.40
2022-12-17T12:46:42.813Z,27.80
2022-12-17T12:50:07.730Z,28.63
2022-12-17T12:52:53.074Z,44.00
2022-12-17T12:55:38.496Z,37.73
2022-12-17T12:58:43.085Z,38.20
2022-12-17T13:01:29.014Z,40.03
2022-12-17T13:04:16.702Z,32.73
2022-12-17T13:06:55.498Z,34.87
2022-12-17T13:09:32.314Z,28.97
2022-12-17T13:12:04.083Z,29.90
2022-12-17T13:14:42.782Z,27.43
2022-12-17T13:17:35.875Z,33.03
2022-12-17T13:20:20.609Z,42.40
2022-12-17T13:23:13.652Z,32.15
2022-12-17T13:25:40.600Z,29.25
2022-12-17T13:28:27.311Z,36.60
2022-12-17T13:31:06.935Z,36.40
2022-12-17T13:33:45.766Z,30.88
2022-12-17T13:36:23.441Z,35.47
2022-12-17T13:39:05.292Z,31.88
2022-12-17T13:41:34.590Z,30.08
2022-12-17T13:44:22.933Z,32.83
2022-12-17T13:46:52.286Z,29.00
2022-12-17T13:49:24.993Z,32.30
2022-12-17T13:52:06.447Z,31.95
2022-12-17T13:54:36.499Z,51.00
2022-12-17T13:57:13.473Z,42.80
2022-12-17T13:59:40.338Z,41.50
2022-12-17T14:02:07.303Z,39.30
2022-12-17T14:04:34.273Z,28.05
2022-12-17T14:07:05.762Z,35.47
2022-12-17T14:09:39.045Z,34.58
2022-12-17T14:12:35.912Z,35.22
2022-12-17T14:15:08.584Z,35.90
2022-12-17T14:17:35.236Z,33.92
2022-12-17T14:20:04.199Z,36.38
2022-12-17T14:22:37.233Z,38.33
2022-12-17T14:25:06.300Z,31.17
2022-12-17T14:27:36.109Z,35.28
2022-12-17T14:30:19.479Z,34.53
2022-12-17T14:32:46.712Z,35.35
2022-12-17T14:35:31.599Z,39.10
2022-12-17T14:37:58.442Z,37.53
2022-12-17T14:40:26.312Z,30.65
2022-12-17T14:42:58.253Z,36.20
2022-12-17T14:45:27.690Z,37.95
2022-12-17T14:48:01.862Z,44.53
2022-12-17T14:50:37.595Z,42.20
2022-12-17T14:53:25.505Z,44.13
2022-12-17T14:55:56.041Z,37.10
2022-12-17T14:58:24.913Z,37.63
2022-12-17T15:01:13.479Z,35.60
2022-12-17T15:03:43.246Z,38.13
2022-12-17T15:06:13.239Z,48.38
2022-12-17T15:08:48.322Z,34.22
2022-12-17T15:11:18.328Z,34.25
2022-12-17T15:13:45.169Z,41.25
2022-12-17T15:16:12.343Z,42.47
2022-12-17T15:18:39.816Z,34.20
2022-12-17T15:21:11.660Z,35.05
2022-12-17T15:23:43.014Z,43.45
2022-12-17T15:26:10.818Z,38.63
2022-12-17T15:28:37.691Z,41.05
2022-12-17T15:31:05.102Z,36.83
2022-12-17T15:33:31.899Z,33.80
2022-12-17T15:35:59.391Z,32.83
2022-12-17T15:38:26.135Z,41.90
2022-12-17T15:40:53.081Z,36.33
2022-12-17T15:43:19.937Z,31.55
2022-12-17T15:45:52.213Z,30.17
2022-12-17T15:48:23.223Z,30.30
2022-12-17T15:50:50.102Z,32.60
2022-12-17T15:53:16.951Z,39.03
2022-12-17T15:55:43.733Z,32.70
2022-12-17T15:58:11.576Z,32.70
2022-12-17T16:00:40.958Z,39.22
2022-12-17T16:03:07.861Z,33.88
2022-12-17T16:05:34.751Z,30.30
2022-12-17T16:08:02.635Z,44.13
2022-12-17T16:10:30.260Z,44.25
2022-12-17T16:12:57.010Z,43.63
2022-12-17T16:15:24.587Z,41.80
2022-12-17T16:17:51.535Z,44.38
2022-12-17T16:20:19.737Z,39.10
2022-12-17T16:22:46.605Z,43.75
2022-12-17T16:25:13.302Z,39.97
2022-12-17T16:27:43.062Z,38.90
2022-12-17T16:30:11.290Z,44.72
2022-12-17T16:32:38.705Z,38.35
2022-12-17T16:35:06.203Z,45.90
2022-12-17T16:37:33.086Z,42.80
2022-12-17T16:40:00.557Z,37.78
2022-12-17T16:42:27.923Z,42.47
2022-12-17T16:44:54.684Z,36.67
2022-12-17T16:47:21.664Z,34.40
2022-12-17T16:49:53.903Z,35.55
2022-12-17T16:52:20.638Z,30.42
2022-12-17T16:54:48.479Z,31.35
2022-12-17T16:57:15.590Z,34.22
2022-12-17T16:59:42.751Z,40.85
2022-12-17T17:02:14.240Z,39.08
2022-12-17T17:04:41.127Z,48.20
2022-12-17T17:07:07.896Z,39.08
2022-12-17T17:09:34.693Z,35.40
2022-12-17T17:12:01.442Z,32.88
2022-12-17T17:14:28.225Z,40.15
2022-12-17T17:16:54.971Z,38.65
2022-12-17T17:19:21.717Z,32.90
2022-12-17T17:21:51.833Z,44.38
2022-12-17T17:24:26.904Z,41.85
2022-12-17T17:26:55.106Z,41.75
2022-12-17T17:29:22.286Z,44.70
2022-12-17T17:34:52.224Z,35.45
2022-12-17T17:37:19.831Z,35.88
2022-12-17T17:39:46.595Z,40.13
2022-12-17T17:42:13.277Z,39.78
2022-12-17T17:44:40.019Z,38.28
2022-12-17T17:47:06.856Z,43.38
2022-12-17T17:49:33.888Z,44.45
2022-12-17T17:52:09.610Z,55.40
2022-12-17T17:54:37.179Z,63.92
2022-12-17T17:57:03.959Z,54.53
2022-12-17T17:59:33.838Z,61.63
2022-12-17T18:02:02.282Z,52.72
2022-12-17T18:04:29.634Z,53.03
2022-12-17T18:09:43.212Z,51.72
2022-12-17T18:12:30.247Z,53.63
2022-12-17T18:15:13.767Z,46.85
2022-12-17T18:17:41.998Z,45.35
2022-12-17T18:20:09.829Z,50.08
2022-12-17T18:22:36.937Z,52.53
2022-12-17T18:25:05.100Z,84.20
2022-12-17T18:27:31.888Z,85.93
2022-12-17T18:29:58.661Z,60.00
2022-12-17T18:32:25.699Z,55.83
2022-12-17T18:34:52.436Z,46.80
2022-12-17T18:37:19.172Z,52.90
2022-12-17T18:39:45.937Z,49.47
2022-12-17T18:42:31.309Z,56.63
2022-12-17T18:44:57.982Z,44.05
2022-12-17T18:47:25.662Z,56.75
2022-12-17T18:49:52.553Z,58.45
2022-12-17T18:52:19.631Z,48.35
2022-12-17T18:54:46.445Z,52.17
2022-12-17T18:57:13.409Z,62.47
2022-12-17T18:59:41.263Z,59.50
2022-12-17T19:02:15.259Z,54.28
2022-12-17T19:04:42.170Z,65.32
2022-12-17T19:07:09.056Z,53.38
2022-12-17T19:09:36.516Z,58.13
2022-12-17T19:12:06.251Z,52.20
2022-12-17T19:14:33.530Z,54.08
2022-12-17T19:17:00.747Z,61.25
2022-12-17T19:19:28.015Z,52.90
2022-12-17T19:21:56.065Z,60.35
2022-12-17T19:24:23.581Z,59.92
2022-12-17T19:26:50.954Z,46.40
2022-12-17T19:29:19.441Z,53.22
2022-12-17T19:31:46.806Z,48.53
2022-12-17T19:34:15.402Z,55.22
2022-12-17T19:36:42.766Z,58.28
2022-12-17T19:39:12.923Z,53.05
2022-12-17T19:41:40.208Z,61.72
2022-12-17T19:44:10.996Z,55.03
2022-12-17T19:46:37.796Z,64.47
2022-12-17T19:49:05.340Z,60.60
2022-12-17T19:51:33.086Z,68.78
2022-12-17T19:54:06.450Z,63.58
2022-12-17T19:56:35.394Z,55.88
2022-12-17T19:59:07.053Z,67.40
2022-12-17T20:01:37.385Z,56.35
2022-12-17T20:04:05.466Z,50.40
2022-12-17T20:06:36.836Z,58.58
2022-12-17T20:09:05.561Z,64.95
2022-12-17T20:11:33.010Z,60.03
2022-12-17T20:14:11.512Z,60.00
2022-12-17T20:16:44.789Z,51.30
2022-12-17T20:19:18.285Z,50.75
2022-12-17T20:21:45.335Z,56.35
2022-12-17T20:24:15.651Z,75.93
2022-12-17T20:26:43.163Z,76.20
2022-12-17T20:29:10.369Z,67.22
2022-12-17T20:31:37.376Z,58.15
2022-12-17T20:34:06.514Z,73.70
2022-12-17T20:36:33.562Z,69.22
2022-12-17T20:39:00.949Z,78.70
2022-12-17T20:41:29.707Z,73.20
2022-12-17T20:44:03.616Z,89.35
2022-12-17T20:46:30.537Z,88.95
2022-12-17T20:48:59.926Z,92.45
2022-12-17T20:51:30.126Z,87.10
2022-12-17T20:53:58.726Z,93.75
2022-12-17T20:56:28.074Z,91.88
2022-12-17T20:59:02.317Z,100.45
2022-12-17T21:01:31.907Z,93.38
2022-12-17T21:03:59.822Z,100.60
2022-12-17T21:06:32.613Z,91.35
2022-12-17T21:08:59.981Z,98.50
2022-12-17T21:11:32.317Z,85.20
2022-12-17T21:13:59.509Z,94.45
2022-12-17T21:16:30.104Z,106.20
2022-12-17T21:18:59.100Z,77.25
2022-12-17T21:21:31.594Z,73.22
2022-12-17T21:23:58.801Z,71.65
2022-12-17T21:26:29.257Z,65.32
2022-12-17T21:28:59.630Z,80.90
2022-12-17T21:31:33.334Z,78.10
2022-12-17T21:34:02.799Z,91.43
2022-12-17T21:36:31.775Z,100.32
2022-12-17T21:38:59.645Z,85.05
2022-12-17T21:41:29.142Z,84.00
2022-12-17T21:43:59.239Z,97.40
2022-12-17T21:46:27.506Z,89.55
2022-12-17T21:48:55.815Z,77.13
2022-12-17T21:51:23.637Z,87.13
2022-12-17T21:53:58.760Z,88.45
2022-12-17T21:56:26.433Z,128.63
2022-12-17T21:59:01.389Z,106.13
2022-12-17T22:01:33.429Z,101.30
2022-12-17T22:04:04.532Z,89.32
2022-12-17T22:06:38.936Z,105.38
2022-12-17T22:09:18.249Z,102.57
2022-12-17T22:12:22.129Z,111.50
2022-12-17T22:14:48.983Z,103.63
2022-12-17T22:17:16.339Z,107.13
2022-12-17T22:19:43.051Z,74.53
2022-12-17T22:22:09.778Z,88.22
2022-12-17T22:24:36.871Z,84.47
2022-12-17T22:27:04.022Z,94.18
2022-12-17T22:29:54.872Z,94.30
2022-12-17T22:32:40.382Z,91.28
2022-12-17T22:35:51.756Z,101.50
2022-12-17T22:37:55.137Z,99.00
2022-12-17T22:44:41.005Z,105.80
2022-12-17T22:44:41.331Z,93.53
2022-12-17T22:46:19.727Z,81.50
2022-12-17T22:48:47.135Z,96.30
2022-12-17T22:51:20.752Z,89.95
2022-12-17T22:54:03.627Z,98.80
2022-12-17T22:56:57.949Z,93.47
2022-12-17T22:59:18.580Z,98.53
2022-12-17T23:01:45.454Z,85.13
2022-12-17T23:04:14.248Z,84.88
2022-12-17T23:06:42.883Z,90.70
2022-12-17T23:09:09.736Z,83.45
2022-12-17T23:11:36.498Z,87.72
2022-12-17T23:14:06.075Z,115.28
2022-12-17T23:16:33.155Z,94.13
2022-12-17T23:19:01.585Z,83.68
2022-12-17T23:21:28.548Z,90.82
2022-12-17T23:23:56.504Z,93.55
2022-12-17T23:26:27.218Z,83.85
2022-12-17T23:28:59.115Z,97.45
2022-12-17T23:31:28.746Z,90.57
2022-12-17T23:33:55.731Z,95.75
2022-12-17T23:36:25.037Z,98.68
2022-12-17T23:38:53.322Z,108.82
2022-12-17T23:41:22.411Z,96.50
2022-12-17T23:43:50.314Z,98.18
2022-12-17T23:46:19.138Z,90.63
2022-12-17T23:48:47.575Z,94.50
2022-12-17T23:51:16.518Z,90.35
2022-12-17T23:53:43.972Z,97.53
2022-12-17T23:56:24.940Z,74.22
2022-12-17T23:58:53.822Z,81.93
